Time;durP1;ratioP1;P1;durP2;ratioP2;P2;SDS_P1;SDS_P2;PMS_P1;PMS_P2;Temp;Humidity;BMP_temperature;BMP_pressure;BME280_temperature;BME280_humidity;BME280_pressure;Samples;Min_cycle;Max_cycle;Signal;HPM_P1;HPM_P2
2022/06/13 00:00:54;;;;;;;3.45;1.90;;;21.00;95.00;;;;;;5000239;28;20216;-72
2022/06/13 00:03:23;;;;;;;5.03;2.15;;;21.00;95.20;;;;;;5000172;28;20673;-72
2022/06/13 00:05:49;;;;;;;3.15;1.73;;;20.90;95.30;;;;;;4989848;28;20576;-72
2022/06/13 00:08:16;;;;;;;4.80;1.97;;;20.90;95.40;;;;;;4989623;28;20256;-72
2022/06/13 00:10:43;;;;;;;3.63;1.90;;;20.90;95.40;;;;;;4990034;28;20212;-73
2022/06/13 00:13:10;;;;;;;6.28;2.15;;;20.90;95.60;;;;;;4990043;28;20588;-73
2022/06/13 00:15:37;;;;;;;3.17;1.87;;;20.90;95.60;;;;;;4990226;28;20613;-71
2022/06/13 00:18:04;;;;;;;2.30;1.90;;;20.80;95.60;;;;;;5003835;28;20239;-71
2022/06/13 00:20:32;;;;;;;4.68;1.83;;;20.80;95.70;;;;;;5009435;28;20206;-71
2022/06/13 00:22:59;;;;;;;5.50;2.38;;;20.80;95.80;;;;;;5008904;28;20292;-72
2022/06/13 00:25:26;;;;;;;4.45;2.00;;;20.80;95.90;;;;;;5008943;28;20296;-72
2022/06/13 00:27:53;;;;;;;4.50;1.92;;;20.70;95.80;;;;;;5009132;28;20216;-72
2022/06/13 00:30:20;;;;;;;7.10;2.20;;;20.60;96.00;;;;;;5008609;28;20209;-72
2022/06/13 00:32:47;;;;;;;2.90;1.65;;;20.60;96.10;;;;;;5006964;28;20211;-71
2022/06/13 00:35:13;;;;;;;3.63;2.17;;;20.60;96.20;;;;;;5009101;28;20206;-72
2022/06/13 00:37:42;;;;;;;3.07;1.80;;;20.60;96.30;;;;;;5008977;28;20345;-72
2022/06/13 00:40:09;;;;;;;4.22;1.80;;;20.50;96.30;;;;;;5008151;28;20208;-70
2022/06/13 00:42:38;;;;;;;3.63;2.22;;;20.60;96.30;;;;;;5008946;28;20205;-72
2022/06/13 00:45:19;;;;;;;4.63;2.23;;;20.50;96.40;;;;;;5003179;28;20238;-72
2022/06/13 00:47:48;;;;;;;4.65;2.05;;;20.50;96.50;;;;;;4989199;28;20198;-72
2022/06/13 00:50:20;;;;;;;5.57;2.30;;;20.50;96.60;;;;;;4989641;28;20212;-73
2022/06/13 00:52:54;;;;;;;5.67;2.30;;;20.50;96.60;;;;;;4989033;28;20281;-72
2022/06/13 00:55:27;;;;;;;4.43;2.43;;;20.40;96.70;;;;;;4991434;28;20329;-73
2022/06/13 00:57:56;;;;;;;3.42;1.77;;;20.40;96.90;;;;;;5007299;28;20237;-72
2022/06/13 01:00:23;;;;;;;3.17;1.95;;;20.30;96.90;;;;;;4993381;28;20212;-72
2022/06/13 01:02:51;;;;;;;6.67;2.40;;;20.40;97.00;;;;;;4989161;28;20206;-73
2022/06/13 01:05:23;;;;;;;3.87;2.20;;;20.30;97.10;;;;;;4988645;28;20268;-72
2022/06/13 01:07:52;;;;;;;4.60;2.03;;;20.30;97.20;;;;;;4988595;28;20658;-72
2022/06/13 01:13:07;;;;;;;3.00;2.00;;;20.20;97.50;;;;;;4992778;28;20422;-72
2022/06/13 01:15:54;;;;;;;3.83;2.00;;;20.30;97.40;;;;;;4991055;28;20222;-72
2022/06/13 01:18:39;;;;;;;3.53;2.07;;;20.20;97.60;;;;;;4988964;28;20221;-72
2022/06/13 01:21:20;;;;;;;2.80;1.90;;;20.20;97.60;;;;;;4997018;28;20293;-72
2022/06/13 01:24:35;;;;;;;4.63;2.47;;;20.20;97.70;;;;;;5007813;28;20204;-72
2022/06/13 01:27:37;;;;;;;3.83;1.90;;;20.20;97.80;;;;;;5008030;28;20208;-72
2022/06/13 01:30:50;;;;;;;6.97;2.50;;;20.10;97.80;;;;;;5007859;28;20248;-72
2022/06/13 01:33:24;;;;;;;5.70;2.53;;;20.10;98.00;;;;;;5008330;28;20198;-72
2022/06/13 01:36:00;;;;;;;3.60;1.93;;;20.10;98.10;;;;;;5008048;28;20193;-71
2022/06/13 01:38:41;;;;;;;4.43;2.33;;;20.00;98.10;;;;;;5007759;28;20348;-72
2022/06/13 01:41:15;;;;;;;3.80;2.07;;;20.00;98.30;;;;;;5008237;28;20315;-72
2022/06/13 01:43:54;;;;;;;5.37;2.47;;;19.90;98.40;;;;;;5007515;28;20235;-72
2022/06/13 01:46:31;;;;;;;4.23;2.13;;;19.90;98.50;;;;;;5007852;28;20295;-72
2022/06/13 01:49:06;;;;;;;4.07;2.10;;;19.80;98.50;;;;;;5007520;28;20211;-72
2022/06/13 01:51:41;;;;;;;5.50;2.23;;;19.70;98.90;;;;;;5005763;28;20246;-72
2022/06/13 01:54:20;;;;;;;2.20;1.80;;;19.70;99.00;;;;;;5008226;28;20217;-72
2022/06/13 01:56:56;;;;;;;4.90;2.30;;;19.70;99.10;;;;;;5007668;28;20571;-72
2022/06/13 01:59:30;;;;;;;4.77;2.07;;;19.60;99.30;;;;;;5008016;28;20205;-71
2022/06/13 02:02:05;;;;;;;5.57;2.00;;;19.60;99.40;;;;;;5008127;28;20229;-71
2022/06/13 02:04:36;;;;;;;3.83;1.97;;;19.60;99.40;;;;;;5008012;28;20194;-71
2022/06/13 02:07:08;;;;;;;3.50;2.00;;;19.60;99.50;;;;;;5008005;28;20198;-73
2022/06/13 02:09:39;;;;;;;6.83;2.43;;;19.60;99.60;;;;;;5007611;28;20209;-73
2022/06/13 02:12:06;;;;;;;2.80;1.97;;;19.60;99.60;;;;;;5007964;28;20212;-73
2022/06/13 02:14:38;;;;;;;4.90;2.00;;;19.60;99.60;;;;;;5007047;28;20205;-73
2022/06/13 02:17:11;;;;;;;2.20;2.00;;;19.60;99.80;;;;;;4996427;28;20198;-71
2022/06/13 02:19:43;;;;;;;4.77;2.47;;;19.60;99.90;;;;;;5002152;28;20209;-72
2022/06/13 02:22:14;;;;;;;5.60;2.10;;;19.60;99.90;;;;;;4998460;28;20197;-72
2022/06/13 02:24:59;;;;;;;4.23;2.10;;;19.60;99.90;;;;;;5000709;28;20199;-75
2022/06/13 02:27:31;;;;;;;4.77;2.30;;;19.50;99.90;;;;;;5007171;28;20217;-75
2022/06/13 02:30:02;;;;;;;4.40;2.43;;;19.40;99.90;;;;;;5009264;28;20208;-75
2022/06/13 02:32:36;;;;;;;4.50;2.20;;;19.40;99.90;;;;;;5008962;28;20711;-74
2022/06/13 02:35:07;;;;;;;4.03;2.23;;;19.40;99.90;;;;;;5006260;28;20510;-75
2022/06/13 02:37:36;;;;;;;4.73;2.13;;;19.40;99.90;;;;;;5008640;28;20731;-75
2022/06/13 02:40:08;;;;;;;5.77;2.47;;;19.40;99.90;;;;;;5008645;28;20232;-75
2022/06/13 02:42:40;;;;;;;3.83;2.33;;;19.50;99.70;;;;;;5009321;28;20218;-75
2022/06/13 02:45:11;;;;;;;5.57;2.30;;;19.50;99.70;;;;;;5003046;28;20241;-75
2022/06/13 02:47:44;;;;;;;4.63;2.47;;;19.50;99.40;;;;;;5004668;28;20212;-74
2022/06/13 02:50:16;;;;;;;3.57;2.03;;;19.60;99.20;;;;;;5008372;28;20213;-75
2022/06/13 02:52:49;;;;;;;5.63;2.30;;;19.50;99.10;;;;;;5008540;28;20201;-75
2022/06/13 02:55:17;;;;;;;5.30;2.67;;;19.50;99.10;;;;;;5005185;28;20194;-74
2022/06/13 02:58:06;;;;;;;5.63;2.37;;;19.40;99.20;;;;;;5008931;28;20328;-75
2022/06/13 03:00:52;;;;;;;3.50;2.30;;;19.40;99.30;;;;;;5004632;28;20190;-74
2022/06/13 03:03:30;;;;;;;6.00;2.63;;;19.40;99.40;;;;;;5001883;28;20229;-71
2022/06/13 03:06:05;;;;;;;4.63;2.17;;;19.30;99.50;;;;;;5008910;28;20203;-72
2022/06/13 03:08:58;;;;;;;5.47;2.30;;;19.20;99.50;;;;;;5008804;28;20219;-74
2022/06/13 03:11:46;;;;;;;4.87;2.30;;;19.20;99.70;;;;;;4977121;28;20214;-74
2022/06/13 03:14:23;;;;;;;5.03;2.50;;;19.10;99.90;;;;;;4989868;28;20724;-74
2022/06/13 03:16:56;;;;;;;5.13;2.10;;;19.20;99.90;;;;;;4989399;28;20609;-74
2022/06/13 03:19:31;;;;;;;5.13;2.20;;;19.10;99.80;;;;;;4989400;28;20218;-74
2022/06/13 03:22:05;;;;;;;7.60;2.17;;;19.10;99.90;;;;;;4989747;28;20256;-74
2022/06/13 03:24:40;;;;;;;6.20;2.50;;;19.00;99.90;;;;;;4989040;28;20290;-74
2022/06/13 03:27:12;;;;;;;4.43;2.10;;;19.00;99.90;;;;;;4989540;28;20198;-74
2022/06/13 03:29:45;;;;;;;5.73;2.47;;;19.10;99.90;;;;;;4990477;28;20202;-74
2022/06/13 03:32:16;;;;;;;4.73;2.30;;;19.00;99.90;;;;;;4990026;28;20201;-74
2022/06/13 03:34:50;;;;;;;4.80;2.53;;;18.90;99.90;;;;;;5003065;28;20264;-73
2022/06/13 03:37:21;;;;;;;3.33;2.37;;;18.90;99.90;;;;;;5009847;28;20782;-74
2022/06/13 03:39:51;;;;;;;4.50;2.30;;;18.80;99.90;;;;;;5009367;28;20221;-74
2022/06/13 03:42:22;;;;;;;6.33;2.90;;;18.80;99.90;;;;;;5010019;28;20218;-73
2022/06/13 03:44:56;;;;;;;3.33;2.30;;;18.90;99.90;;;;;;5005559;28;20233;-73
2022/06/13 03:47:29;;;;;;;2.50;1.97;;;18.80;99.90;;;;;;4991374;28;20256;-73
2022/06/13 03:50:02;;;;;;;3.37;2.13;;;18.80;99.90;;;;;;5009694;28;20229;-73
2022/06/13 03:52:34;;;;;;;3.90;2.53;;;18.70;99.80;;;;;;5010034;28;20194;-73
2022/06/13 03:55:06;;;;;;;3.70;2.10;;;18.70;99.80;;;;;;5009651;28;20280;-73
2022/06/13 03:57:37;;;;;;;7.80;2.50;;;18.70;99.90;;;;;;5009573;28;20628;-73
2022/06/13 04:00:10;;;;;;;7.50;2.80;;;18.60;99.80;;;;;;5009733;28;20512;-73
2022/06/13 04:02:40;;;;;;;9.43;2.50;;;18.60;99.70;;;;;;5009911;28;20272;-73
2022/06/13 04:05:17;;;;;;;4.97;2.47;;;18.40;99.90;;;;;;5009405;28;20304;-73
2022/06/13 04:07:44;;;;;;;6.37;2.50;;;18.40;99.90;;;;;;5009748;28;20288;-73
2022/06/13 04:10:15;;;;;;;5.23;2.77;;;18.40;99.90;;;;;;5020230;28;20209;-73
2022/06/13 04:12:57;;;;;;;6.43;2.47;;;18.40;99.90;;;;;;5029427;28;20201;-73
2022/06/13 04:15:37;;;;;;;5.63;2.70;;;18.40;99.90;;;;;;5021812;28;20209;-73
2022/06/13 04:18:15;;;;;;;4.70;2.30;;;18.40;99.90;;;;;;4989607;28;20218;-73
2022/06/13 04:20:53;;;;;;;7.20;2.57;;;18.40;99.90;;;;;;4989920;28;20289;-73
2022/06/13 04:23:25;;;;;;;7.93;2.70;;;18.40;99.90;;;;;;4989383;28;20958;-73
2022/06/13 04:26:05;;;;;;;4.60;2.60;;;18.40;99.90;;;;;;4989749;28;20281;-73
2022/06/13 04:28:39;;;;;;;3.20;2.50;;;18.50;99.90;;;;;;4989866;28;20289;-73
2022/06/13 04:31:08;;;;;;;6.20;2.50;;;18.40;99.90;;;;;;5002557;28;20683;-73
2022/06/13 04:33:40;;;;;;;6.70;2.73;;;18.40;99.90;;;;;;5009312;28;20208;-73
2022/06/13 04:36:12;;;;;;;5.13;2.57;;;18.40;99.90;;;;;;5008965;28;20197;-73
2022/06/13 04:38:43;;;;;;;6.17;2.70;;;18.40;99.90;;;;;;5008597;28;20240;-73
2022/06/13 04:41:12;;;;;;;4.57;2.50;;;18.40;99.90;;;;;;5004600;28;20217;-73
2022/06/13 04:43:43;;;;;;;5.70;2.93;;;18.40;99.90;;;;;;4989940;28;20234;-74
2022/06/13 04:46:14;;;;;;;13.17;3.10;;;18.30;99.90;;;;;;5008740;28;20668;-73
2022/06/13 04:48:43;;;;;;;4.70;2.57;;;18.30;99.90;;;;;;5008573;28;20201;-74
2022/06/13 04:51:14;;;;;;;6.50;2.93;;;18.30;99.90;;;;;;5008472;28;20654;-74
2022/06/13 04:53:51;;;;;;;7.83;2.80;;;18.30;99.90;;;;;;5008636;28;20194;-74
2022/06/13 04:56:20;;;;;;;4.93;2.57;;;18.30;99.90;;;;;;5009067;28;20201;-74
2022/06/13 04:58:48;;;;;;;5.33;2.67;;;18.30;99.90;;;;;;5008606;28;20237;-74
2022/06/13 05:01:20;;;;;;;5.57;2.83;;;18.30;99.90;;;;;;5008852;28;20216;-74
2022/06/13 05:03:48;;;;;;;5.73;2.67;;;18.30;99.90;;;;;;5008427;28;20288;-74
2022/06/13 05:06:27;;;;;;;4.57;2.93;;;18.40;99.90;;;;;;5008623;28;20213;-74
2022/06/13 05:08:57;;;;;;;8.20;2.70;;;18.40;99.90;;;;;;5006913;28;20209;-74
2022/06/13 05:11:27;;;;;;;8.07;3.03;;;18.30;99.80;;;;;;5008675;28;20241;-73
2022/06/13 05:13:59;;;;;;;6.43;2.67;;;18.40;99.90;;;;;;5008378;28;20214;-74
2022/06/13 05:16:39;;;;;;;4.90;2.47;;;18.40;99.80;;;;;;4992475;28;20692;-74
2022/06/13 05:19:21;;;;;;;6.57;2.77;;;18.40;99.60;;;;;;4988584;28;20222;-74
2022/06/13 05:21:59;;;;;;;5.80;2.50;;;18.50;99.40;;;;;;4988475;28;20198;-74
2022/06/13 05:24:51;;;;;;;6.33;2.90;;;18.50;99.10;;;;;;4988802;28;20198;-74
2022/06/13 05:27:18;;;;;;;8.33;3.00;;;18.60;99.00;;;;;;5001204;28;20209;-74
2022/06/13 05:29:45;;;;;;;5.33;2.67;;;18.60;98.80;;;;;;5007775;28;20252;-73
2022/06/13 05:32:14;;;;;;;6.63;2.57;;;18.70;98.80;;;;;;5008263;28;20209;-74
2022/06/13 05:34:44;;;;;;;4.60;2.43;;;18.80;98.60;;;;;;5008256;28;20212;-74
2022/06/13 05:37:14;;;;;;;5.07;2.37;;;18.60;98.70;;;;;;5008085;28;20238;-74
2022/06/13 05:39:41;;;;;;;6.33;2.40;;;18.50;98.40;;;;;;5007641;28;20732;-74
2022/06/13 05:42:10;;;;;;;6.77;2.80;;;18.30;98.30;;;;;;5007955;28;20275;-74
2022/06/13 05:44:37;;;;;;;9.97;3.07;;;18.30;98.50;;;;;;5007024;28;20320;-74
2022/06/13 05:47:04;;;;;;;6.83;2.90;;;18.40;98.80;;;;;;4988506;28;20202;-73
2022/06/13 05:49:31;;;;;;;7.33;2.73;;;18.30;98.80;;;;;;4988551;28;20232;-73
2022/06/13 05:51:58;;;;;;;7.50;2.43;;;18.30;98.80;;;;;;4988026;28;20245;-74
2022/06/13 05:54:27;;;;;;;5.37;2.20;;;18.10;98.50;;;;;;4992744;28;20947;-74
2022/06/13 05:56:54;;;;;;;4.63;2.40;;;18.00;98.70;;;;;;5010574;28;20292;-74
2022/06/13 05:59:21;;;;;;;7.37;2.70;;;18.10;99.10;;;;;;5011855;28;20328;-74
2022/06/13 06:01:47;;;;;;;6.20;2.70;;;18.20;99.00;;;;;;5011705;28;20210;-73
2022/06/13 06:04:14;;;;;;;7.50;2.90;;;18.30;98.50;;;;;;5011652;28;20205;-74
2022/06/13 06:06:41;;;;;;;5.90;2.20;;;18.40;98.20;;;;;;5011907;28;20300;-74
2022/06/13 06:09:13;;;;;;;11.53;3.00;;;18.50;97.70;;;;;;5011172;28;20683;-74
2022/06/13 06:11:41;;;;;;;5.47;2.43;;;18.60;97.10;;;;;;5011874;28;20539;-74
2022/06/13 06:14:11;;;;;;;15.20;3.23;;;18.60;96.80;;;;;;5011451;28;20216;-73
2022/06/13 06:16:38;;;;;;;6.87;2.73;;;18.60;97.00;;;;;;4994161;28;20634;-73
2022/06/13 06:19:05;;;;;;;5.53;2.97;;;18.50;96.70;;;;;;4991408;28;20754;-73
2022/06/13 06:21:31;;;;;;;8.20;2.53;;;18.60;97.00;;;;;;4991911;28;20214;-74
2022/06/13 06:23:58;;;;;;;4.27;2.53;;;18.60;97.10;;;;;;5007415;28;20690;-73
2022/06/13 06:26:27;;;;;;;5.33;2.43;;;18.70;97.10;;;;;;5011601;28;20207;-74
2022/06/13 06:28:55;;;;;;;11.00;2.97;;;18.70;97.20;;;;;;5011263;28;20717;-74
2022/06/13 06:31:23;;;;;;;4.57;2.53;;;18.70;97.00;;;;;;5011411;28;20292;-74
2022/06/13 06:33:50;;;;;;;5.63;2.60;;;18.60;97.20;;;;;;5011011;28;20220;-75
2022/06/13 06:36:17;;;;;;;6.50;3.07;;;18.70;97.40;;;;;;5001838;28;20240;-75
2022/06/13 06:38:45;;;;;;;8.37;2.83;;;18.60;97.50;;;;;;4991612;28;20230;-74
2022/06/13 06:41:13;;;;;;;9.17;3.00;;;18.40;97.60;;;;;;4991629;28;20216;-75
2022/06/13 06:43:39;;;;;;;8.00;2.47;;;18.10;97.60;;;;;;4991445;28;20242;-74
2022/06/13 06:46:08;;;;;;;5.20;2.30;;;18.00;97.80;;;;;;5004588;28;20275;-74
2022/06/13 06:48:36;;;;;;;7.90;2.47;;;18.10;98.10;;;;;;5011107;28;20205;-74
2022/06/13 06:51:07;;;;;;;3.70;2.43;;;18.00;97.30;;;;;;5002942;28;20743;-74
2022/06/13 07:01:44;;;;;;;5.97;2.60;;;18.20;97.50;;;;;;5030614;28;20659;-74
2022/06/13 07:04:11;;;;;;;5.57;2.57;;;18.30;97.50;;;;;;5030142;28;20205;-73
2022/06/13 07:06:39;;;;;;;4.30;2.30;;;18.30;97.70;;;;;;5010706;28;20232;-74
2022/06/13 07:09:06;;;;;;;6.97;2.30;;;18.30;96.70;;;;;;5010322;28;20209;-74
2022/06/13 07:14:15;;;;;;;3.27;2.00;;;18.40;96.80;;;;;;5007880;28;20283;-73
2022/06/13 07:16:44;;;;;;;7.53;2.27;;;18.50;96.90;;;;;;4992720;28;20206;-74
2022/06/13 07:19:11;;;;;;;3.03;1.80;;;18.50;96.10;;;;;;4998597;28;20331;-73
2022/06/13 07:21:38;;;;;;;3.17;1.87;;;18.30;95.40;;;;;;5010502;28;20213;-73
2022/06/13 07:24:05;;;;;;;4.77;2.00;;;18.30;95.40;;;;;;5009869;28;20220;-74
2022/06/13 07:26:32;;;;;;;6.47;1.60;;;18.10;95.40;;;;;;4991127;28;20310;-73
2022/06/13 07:28:59;;;;;;;4.43;1.80;;;18.20;95.50;;;;;;4994606;28;20209;-74
2022/06/13 07:31:38;;;;;;;2.77;1.60;;;18.30;95.20;;;;;;4993303;28;20320;-74
2022/06/13 07:34:07;;;;;;;2.67;1.70;;;18.30;94.80;;;;;;5004757;28;20738;-74
2022/06/13 07:36:34;;;;;;;7.13;2.37;;;18.10;94.60;;;;;;5010439;28;20312;-74
2022/06/13 07:39:01;;;;;;;4.57;1.70;;;18.20;94.50;;;;;;5009546;28;20233;-73
2022/06/13 07:41:28;;;;;;;3.80;1.80;;;18.10;93.80;;;;;;5010075;28;20216;-73
2022/06/13 07:43:57;;;;;;;5.37;1.83;;;18.10;94.30;;;;;;5009761;28;20237;-73
2022/06/13 07:46:26;;;;;;;3.63;1.93;;;18.20;94.50;;;;;;4994867;28;20378;-74
2022/06/13 07:48:53;;;;;;;2.33;1.90;;;18.10;94.30;;;;;;5009988;28;20324;-74
2022/06/13 07:51:22;;;;;;;3.00;1.50;;;17.90;94.70;;;;;;5010140;28;20226;-73
2022/06/13 07:53:49;;;;;;;6.07;2.10;;;18.00;95.10;;;;;;5009506;28;20206;-73
2022/06/13 07:56:18;;;;;;;6.50;2.17;;;17.90;95.40;;;;;;4990444;28;20206;-73
2022/06/13 07:58:48;;;;;;;5.40;1.70;;;17.90;95.80;;;;;;4989936;28;20216;-74
2022/06/13 08:01:16;;;;;;;4.00;2.17;;;18.00;96.00;;;;;;4996633;28;20871;-73
2022/06/13 08:03:43;;;;;;;9.70;2.60;;;18.00;95.90;;;;;;5009975;28;20221;-74
2022/06/13 08:06:11;;;;;;;5.87;2.23;;;18.10;96.10;;;;;;5009666;28;20205;-73
2022/06/13 08:08:40;;;;;;;4.00;2.00;;;18.10;96.10;;;;;;5009507;28;20205;-74
2022/06/13 08:11:09;;;;;;;6.40;2.00;;;18.10;96.30;;;;;;5009673;28;20211;-74
2022/06/13 08:13:38;;;;;;;5.73;1.77;;;18.10;96.20;;;;;;5009383;28;20210;-74
2022/06/13 08:16:09;;;;;;;3.50;2.07;;;18.20;95.40;;;;;;5000717;28;20206;-74
2022/06/13 08:18:37;;;;;;;5.80;1.73;;;18.30;95.20;;;;;;4989314;28;20207;-74
2022/06/13 08:21:07;;;;;;;5.63;2.07;;;18.30;94.60;;;;;;4989526;28;20316;-74
2022/06/13 08:23:34;;;;;;;5.43;1.67;;;18.40;94.90;;;;;;4989023;28;20202;-74
2022/06/13 08:26:05;;;;;;;6.17;1.73;;;18.60;95.10;;;;;;4999193;28;20672;-74
2022/06/13 08:28:32;;;;;;;4.10;1.93;;;18.70;94.50;;;;;;5009192;28;20210;-74
2022/06/13 08:31:04;;;;;;;5.53;2.00;;;18.80;93.80;;;;;;4989601;28;20264;-74
2022/06/13 08:33:31;;;;;;;5.47;1.97;;;18.80;93.70;;;;;;5006738;28;20212;-74
2022/06/13 08:35:58;;;;;;;6.17;1.90;;;19.10;94.40;;;;;;5008711;28;20263;-74
2022/06/13 08:38:25;;;;;;;9.97;2.27;;;19.40;93.60;;;;;;5008661;28;20260;-74
2022/06/13 08:41:01;;;;;;;4.53;2.00;;;19.60;92.20;;;;;;5008689;28;20237;-74
2022/06/13 08:44:04;;;;;;;10.30;2.57;;;19.70;92.20;;;;;;5002079;28;20233;-76
2022/06/13 08:46:39;;;;;;;7.27;2.30;;;19.90;92.50;;;;;;5005812;28;20216;-75
2022/06/13 08:49:11;;;;;;;8.57;2.20;;;20.00;92.20;;;;;;5008713;28;20211;-74
2022/06/13 08:51:45;;;;;;;7.00;2.50;;;19.90;92.40;;;;;;5021229;28;20192;-75
2022/06/13 08:54:18;;;;;;;6.93;2.47;;;19.90;92.50;;;;;;5028500;28;20536;-75
2022/06/13 08:56:47;;;;;;;5.77;2.73;;;19.40;92.70;;;;;;5028015;28;20731;-74
2022/06/13 08:59:23;;;;;;;6.73;2.63;;;19.30;93.00;;;;;;5008783;28;20209;-72
2022/06/13 09:01:56;;;;;;;6.67;2.80;;;19.00;93.30;;;;;;5008667;28;20193;-72
2022/06/13 09:04:28;;;;;;;6.07;2.73;;;19.00;93.30;;;;;;5008733;28;20201;-72
2022/06/13 09:07:01;;;;;;;3.80;2.40;;;19.20;93.70;;;;;;5008307;28;20557;-72
2022/06/13 09:09:33;;;;;;;8.17;2.13;;;19.40;93.40;;;;;;5008444;28;20198;-72
2022/06/13 09:12:06;;;;;;;4.10;2.30;;;19.50;92.60;;;;;;5008555;28;20202;-75
2022/06/13 09:14:36;;;;;;;6.53;2.43;;;19.60;92.80;;;;;;5008551;28;20649;-75
2022/06/13 09:17:09;;;;;;;5.47;2.40;;;19.70;92.90;;;;;;5008490;28;20292;-75
2022/06/13 09:19:43;;;;;;;6.83;2.47;;;19.70;92.10;;;;;;5008450;28;20291;-75
2022/06/13 09:22:17;;;;;;;4.40;2.60;;;19.50;92.30;;;;;;5008275;28;20205;-75
2022/06/13 09:24:57;;;;;;;7.10;2.60;;;19.40;92.40;;;;;;5008168;28;20189;-75
2022/06/13 09:27:26;;;;;;;7.17;2.60;;;19.20;91.80;;;;;;5008586;28;20197;-72
2022/06/13 09:30:00;;;;;;;6.37;2.20;;;19.20;92.20;;;;;;5007712;28;20226;-72
2022/06/13 09:32:34;;;;;;;5.43;2.13;;;19.20;92.20;;;;;;5008291;28;20194;-72
2022/06/13 09:35:09;;;;;;;5.77;2.60;;;19.20;91.90;;;;;;5008091;28;20189;-72
2022/06/13 09:37:42;;;;;;;3.67;2.07;;;19.50;92.20;;;;;;5007999;28;20224;-74
2022/06/13 09:40:11;;;;;;;12.40;3.03;;;19.60;92.30;;;;;;5018089;28;20216;-75
2022/06/13 09:42:56;;;;;;;8.50;2.47;;;19.90;91.90;;;;;;5027892;28;20660;-75
2022/06/13 09:45:48;;;;;;;5.33;2.23;;;19.70;91.20;;;;;;5020757;28;20217;-75
2022/06/13 09:48:29;;;;;;;4.47;2.10;;;19.90;91.80;;;;;;4992733;28;20220;-72
2022/06/13 09:51:09;;;;;;;4.10;2.10;;;19.80;91.00;;;;;;4988367;28;20195;-73
2022/06/13 09:53:45;;;;;;;5.00;2.07;;;19.90;91.00;;;;;;4993330;28;20215;-73
2022/06/13 09:56:19;;;;;;;2.30;2.10;;;20.10;91.20;;;;;;5007838;28;20189;-74
2022/06/13 09:59:00;;;;;;;5.33;2.30;;;20.20;90.90;;;;;;5008454;28;20197;-74
2022/06/13 10:01:34;;;;;;;5.07;2.07;;;20.30;90.50;;;;;;5008082;28;20225;-75
2022/06/13 10:04:05;;;;;;;4.57;2.10;;;20.40;90.70;;;;;;5008029;28;20193;-75
2022/06/13 10:06:41;;;;;;;6.43;2.30;;;20.50;89.50;;;;;;5008034;28;20198;-73
2022/06/13 10:09:28;;;;;;;3.17;1.93;;;20.40;89.80;;;;;;5007336;28;20208;-74
2022/06/13 10:12:03;;;;;;;4.77;2.20;;;20.50;90.40;;;;;;5008022;28;20193;-73
2022/06/13 10:14:50;;;;;;;4.23;2.20;;;20.60;89.30;;;;;;5008206;28;20287;-74
2022/06/13 10:17:32;;;;;;;5.13;2.13;;;20.40;89.00;;;;;;4988316;28;20414;-74
2022/06/13 10:20:09;;;;;;;5.97;2.50;;;20.40;89.70;;;;;;5007548;28;20236;-74
2022/06/13 10:22:43;;;;;;;4.27;1.83;;;20.30;89.80;;;;;;5007716;28;20213;-74
2022/06/13 10:25:26;;;;;;;6.70;1.87;;;20.40;87.10;;;;;;5007562;28;20201;-74
2022/06/13 10:28:02;;;;;;;4.50;1.70;;;20.40;85.30;;;;;;5007796;28;20280;-74
2022/06/13 10:30:44;;;;;;;5.63;1.90;;;20.20;84.70;;;;;;5007921;28;20200;-73
2022/06/13 10:33:26;;;;;;;4.30;2.13;;;19.90;85.50;;;;;;5007526;28;20742;-74
2022/06/13 10:35:59;;;;;;;3.33;1.80;;;20.00;86.50;;;;;;5007663;28;20202;-74
2022/06/13 10:38:40;;;;;;;6.43;2.37;;;20.30;86.90;;;;;;5007559;28;20198;-74
2022/06/13 10:41:08;;;;;;;8.00;2.00;;;20.60;87.50;;;;;;5007237;28;20790;-74
2022/06/13 10:43:37;;;;;;;3.23;2.00;;;20.90;87.30;;;;;;5010543;28;20246;-74
2022/06/13 10:46:08;;;;;;;4.57;1.80;;;21.00;82.80;;;;;;4998282;28;20214;-74
2022/06/13 10:48:42;;;;;;;5.27;1.83;;;21.20;83.40;;;;;;4991387;28;20672;-74
2022/06/13 10:51:09;;;;;;;3.05;1.50;;;21.40;83.20;;;;;;5007259;28;20571;-75
2022/06/13 10:53:43;;;;;;;3.70;1.80;;;21.40;82.10;;;;;;5010831;28;20218;-74
2022/06/13 10:56:15;;;;;;;4.60;2.00;;;21.60;82.90;;;;;;5010895;28;20217;-74
2022/06/13 10:58:47;;;;;;;4.47;1.50;;;21.70;80.90;;;;;;5010845;28;20194;-74
2022/06/13 11:01:16;;;;;;;8.85;1.80;;;21.90;80.00;;;;;;5010889;28;20221;-74
2022/06/13 11:03:58;;;;;;;3.08;1.65;;;21.90;80.40;;;;;;5010725;28;20208;-74
2022/06/13 11:06:37;;;;;;;5.03;1.87;;;21.80;78.90;;;;;;5010660;28;20205;-74
2022/06/13 11:09:06;;;;;;;4.60;2.10;;;21.90;80.70;;;;;;5010455;28;20193;-74
2022/06/13 11:11:36;;;;;;;2.55;1.70;;;21.90;81.40;;;;;;4991068;28;20233;-74
2022/06/13 11:14:04;;;;;;;2.92;1.70;;;21.90;81.40;;;;;;4995134;28;20209;-74
2022/06/13 11:22:39;;;;;;;5.82;2.38;;;22.00;80.20;;;;;;5008483;28;20601;-74
2022/06/13 11:25:17;;;;;;;6.40;2.25;;;22.00;82.60;;;;;;5009797;28;20304;-74
2022/06/13 11:27:46;;;;;;;7.28;2.15;;;22.10;84.40;;;;;;5010444;28;20194;-74
2022/06/13 11:30:35;;;;;;;6.72;2.40;;;22.20;84.70;;;;;;5009949;28;20914;-73
2022/06/13 11:33:05;;;;;;;4.10;1.80;;;22.40;83.80;;;;;;5010342;28;20236;-73
2022/06/13 11:35:39;;;;;;;7.13;2.38;;;22.20;81.60;;;;;;5010037;28;20214;-74
2022/06/13 11:38:19;;;;;;;4.93;1.87;;;21.60;81.20;;;;;;5009664;28;20198;-73
2022/06/13 11:40:48;;;;;;;4.30;2.20;;;21.40;82.40;;;;;;5010079;28;20231;-73
2022/06/13 11:43:20;;;;;;;5.57;1.77;;;21.60;83.60;;;;;;5009981;28;20316;-73
2022/06/13 11:45:56;;;;;;;5.35;2.08;;;22.00;83.00;;;;;;5002288;28;20252;-74
2022/06/13 11:48:23;;;;;;;1.85;1.65;;;22.40;82.80;;;;;;5010154;28;20201;-73
2022/06/13 11:50:56;;;;;;;2.97;1.85;;;22.40;80.40;;;;;;5009377;28;20687;-74
2022/06/13 11:53:38;;;;;;;6.57;1.95;;;22.70;79.60;;;;;;5008888;28;20228;-74
2022/06/13 11:56:20;;;;;;;4.97;1.83;;;22.70;77.60;;;;;;5009410;28;20193;-74
2022/06/13 11:58:50;;;;;;;14.50;3.00;;;22.20;80.20;;;;;;5009739;28;20194;-74
2022/06/13 12:01:24;;;;;;;13.48;2.53;;;22.10;85.10;;;;;;5003313;28;20848;-74
2022/06/13 12:04:01;;;;;;;8.50;2.13;;;21.40;87.80;;;;;;5009657;28;20275;-74
2022/06/13 12:06:35;;;;;;;5.53;1.97;;;21.30;88.00;;;;;;5009503;28;20752;-74
2022/06/13 12:09:14;;;;;;;7.47;2.10;;;21.00;87.90;;;;;;5009013;28;20195;-74
2022/06/13 12:11:47;;;;;;;4.80;1.80;;;20.90;88.10;;;;;;5009402;28;20214;-74
2022/06/13 12:14:14;;;;;;;9.30;1.50;;;20.50;87.40;;;;;;5009230;28;20248;-73
2022/06/13 12:16:49;;;;;;;4.23;1.50;;;20.10;88.40;;;;;;4991491;28;20249;-74
2022/06/13 12:19:33;;;;;;;4.73;1.20;;;19.60;89.20;;;;;;4989957;28;20212;-73
2022/06/13 12:22:08;;;;;;;2.77;1.50;;;19.40;90.60;;;;;;4989600;28;20226;-74
2022/06/13 12:24:56;;;;;;;2.13;1.13;;;19.60;90.90;;;;;;4989255;28;20202;-74
2022/06/13 12:27:35;;;;;;;2.37;1.40;;;20.00;90.50;;;;;;4989504;28;20202;-74
2022/06/13 12:30:11;;;;;;;2.40;1.30;;;20.30;88.80;;;;;;5008853;28;20206;-74
2022/06/13 12:32:44;;;;;;;2.63;1.33;;;20.50;87.00;;;;;;5009172;28;20193;-74
2022/06/13 12:35:32;;;;;;;2.73;1.43;;;20.80;86.00;;;;;;5009046;28;20557;-74
2022/06/13 12:38:10;;;;;;;3.63;1.40;;;21.20;85.60;;;;;;5008988;28;20271;-75
2022/06/13 12:40:46;;;;;;;2.30;1.50;;;21.30;84.30;;;;;;5008611;28;20707;-74
2022/06/13 12:43:49;;;;;;;5.00;1.83;;;21.20;85.00;;;;;;5008701;28;20714;-74
2022/06/13 12:46:30;;;;;;;4.77;2.07;;;21.20;85.90;;;;;;4981662;28;20225;-74
2022/06/13 12:49:11;;;;;;;2.93;1.60;;;21.70;86.10;;;;;;4989159;28;20209;-74
2022/06/13 12:51:48;;;;;;;2.40;1.87;;;21.40;83.70;;;;;;4989359;28;20206;-74
2022/06/13 12:54:38;;;;;;;1.87;1.40;;;21.40;85.00;;;;;;4988761;28;20206;-75
2022/06/13 12:57:18;;;;;;;2.57;1.40;;;21.70;85.20;;;;;;4999550;28;20198;-75
2022/06/13 12:59:57;;;;;;;2.92;1.85;;;21.70;85.70;;;;;;5008636;28;20665;-74
2022/06/13 13:02:34;;;;;;;3.25;1.40;;;21.40;85.80;;;;;;5008540;28;20224;-74
2022/06/13 13:05:18;;;;;;;6.67;1.80;;;21.10;89.60;;;;;;5008216;28;20563;-75
2022/06/13 13:07:57;;;;;;;2.07;1.43;;;20.60;90.80;;;;;;5008305;28;20216;-75
2022/06/13 13:10:34;;;;;;;4.00;1.70;;;20.60;91.30;;;;;;5008574;28;20215;-74
2022/06/13 13:13:18;;;;;;;9.53;1.70;;;20.70;91.70;;;;;;5008204;28;20731;-74
2022/06/13 13:15:51;;;;;;;7.33;1.80;;;20.70;91.90;;;;;;4998257;28;20221;-74
2022/06/13 13:18:34;;;;;;;3.55;1.48;;;20.90;91.40;;;;;;4989065;28;20206;-74
2022/06/13 13:21:07;;;;;;;2.85;1.20;;;21.30;90.80;;;;;;4988311;28;20222;-75
2022/06/13 13:23:40;;;;;;;2.83;1.20;;;21.70;89.70;;;;;;4988533;28;20218;-75
2022/06/13 13:26:19;;;;;;;2.03;1.13;;;21.90;89.20;;;;;;5006297;28;20587;-74
2022/06/13 13:28:59;;;;;;;1.40;1.20;;;22.20;87.90;;;;;;5008672;28;20197;-74
2022/06/13 13:31:34;;;;;;;4.37;1.17;;;22.20;87.60;;;;;;5008037;28;20206;-74
2022/06/13 13:34:14;;;;;;;1.10;1.00;;;21.70;90.00;;;;;;5008030;28;20193;-74
2022/06/13 13:36:50;;;;;;;1.07;0.97;;;21.50;88.40;;;;;;5008002;28;20668;-75